Flight Track Log - Related Links

Times and Time Zones

All times are in EDT time to prevent confusion due to time zone crossing. See the EJA727 flight status page for this flight to view local times or setup timezone preferences in your user account.

Time Position Orientation Groundspeed Altitude Reporting Facility
EDT Latitude Longitude Course Direction KTS MPH feet Rate Location/Type
Sun 03:48:54 PM 35.3167 -82.5244 193° South 282 325 7,500  Level Atlanta Center
Sun 03:49:54 PM 35.2461 -82.5433 192° South 282 325 9,300 1,950 Climbing Atlanta Center
Sun 03:50:54 PM 35.1689 -82.5625 191° South 282 325 11,400 2,600 Climbing Atlanta Center
Sun 03:51:54 PM 35.0794 -82.5869 193° South 289 333 14,500 3,000 Climbing Atlanta Center
Sun 03:52:54 PM 34.9839 -82.6064 189° South 332 382 17,400 2,800 Climbing Atlanta Center
Sun 03:53:00 PM 34.7940 -82.6866 187° South  Level FlightAware Approximate
Sun 03:53:54 PM 34.8842 -82.6411 196° South 358 412 20,100  Level Atlanta Center
Sun 03:54:00 PM 34.6858 -82.7041 193° South  Level FlightAware Approximate
Sun 03:54:54 PM 34.7947 -82.6678 194° South 374 430 22,200  Level Atlanta Center
Sun 03:55:54 PM 34.6886 -82.7025 195° South 379 436 23,500 1,400 Climbing Atlanta Center
Sun 03:56:54 PM 34.5783 -82.7319 192° South 402 463 25,000 1,250 Climbing Atlanta Center
Sun 03:57:54 PM 34.4722 -82.7664 195° South 403 464 26,000 1,500 Climbing Atlanta Center
Sun 03:58:54 PM 34.3472 -82.7783 185° South 409 471 28,000 2,400 Climbing Atlanta Center
Sun 03:59:54 PM 34.2344 -82.7675 175° South 414 476 30,800 2,400 Climbing Atlanta Center
Sun 04:00:54 PM 34.1217 -82.7717 182° South 409 471 32,800 1,600 Climbing Atlanta Center
Sun 04:01:54 PM 34.0114 -82.8108 196° South 403 464 34,000 1,100 Climbing Atlanta Center
Sun 04:02:54 PM 33.8925 -82.8250 186° South 423 487 35,000 500 Climbing Atlanta Center
Sun 04:03:54 PM 33.7672 -82.8144 176° South 439 505 35,000  Level Atlanta Center
Sun 04:04:54 PM 33.6356 -82.7964 173° South 470 541 35,000  Level Atlanta Center
Sun 04:05:54 PM 33.5122 -82.7806 174° South 463 533 35,000 350 Level Atlanta Center
Sun 04:06:54 PM 33.3953 -82.7672 175° South 464 534 35,700 900 Climbing Atlanta Center
Sun 04:07:54 PM 33.2656 -82.7469 173° South 457 526 36,800 1,050 Climbing Atlanta Center
Sun 04:08:54 PM 33.1422 -82.7289 173° South 452 520 37,800 600 Climbing Atlanta Center
Sun 04:09:54 PM 33.0189 -82.7108 173° South 452 520 38,000 100 Climbing Atlanta Center
Sun 04:10:54 PM 32.8978 -82.6956 174° South 447 514 38,000  Level Atlanta Center
Sun 04:11:54 PM 32.7786 -82.6775 173° South 442 509 38,000  Level Atlanta Center
Sun 04:14:25 PM 32.4753 -82.6339 173° South 444 511 38,000  Level Jacksonville Center
Sun 04:15:25 PM 32.3667 -82.6172 173° South 444 511 38,000 600 Level Jacksonville Center
Sun 04:16:25 PM 32.2414 -82.6003 173° South 444 511 39,200 1,000 Climbing Jacksonville Center
Sun 04:17:25 PM 32.1181 -82.5836 173° South 444 511 40,000 403 Climbing Jacksonville Center
Sun 04:18:24 PM 31.9950 -82.5667 173° South 444 511 40,000  Level Jacksonville Center
Sun 04:19:25 PM 31.8758 -82.5500 173° South 444 511 40,000  Level Jacksonville Center
Sun 04:20:25 PM 31.7569 -82.5358 174° South 444 511 40,000  Level Jacksonville Center
Sun 04:21:25 PM 31.6272 -82.5169 173° South 439 505 40,000  Level Jacksonville Center
Sun 04:22:25 PM 31.5103 -82.5075 176° South 434 499 40,000  Level Jacksonville Center
Sun 04:23:25 PM 31.3872 -82.5128 182° South 434 499 40,000  Level Jacksonville Center
Sun 04:24:25 PM 31.2725 -82.5231 184° South 434 499 40,000  Level Jacksonville Center
Sun 04:25:25 PM 31.1492 -82.5283 182° South 434 499 40,000  Level Jacksonville Center
Sun 04:26:25 PM 31.0281 -82.5339 182° South 439 505 40,000  Level Jacksonville Center
Sun 04:27:25 PM 30.9069 -82.5392 182° South 439 505 40,000  Level Jacksonville Center
Sun 04:28:25 PM 30.7881 -82.5444 182° South 439 505 40,000  Level Jacksonville Center
Sun 04:29:25 PM 30.6669 -82.5472 181° South 439 505 40,000 -150 Level Jacksonville Center
Sun 04:30:25 PM 30.5458 -82.5525 182° South 439 505 39,700 -500 Descending Jacksonville Center
Sun 04:31:25 PM 30.4247 -82.5506 179° South 439 505 39,000 -400 Descending Jacksonville Center
Sun 04:32:25 PM 30.2994 -82.5414 176° South 439 505 38,900 -50 Descending Jacksonville Center
Sun 04:33:25 PM 30.1825 -82.5322 176° South 438 504 38,900 50 Level Jacksonville Center
Sun 04:34:25 PM 30.0656 -82.5206 175° South 433 498 39,000 50 Climbing Jacksonville Center
Sun 04:35:25 PM 29.9633 -82.5089 174° South 420 483 39,000  Level Jacksonville Center
Sun 04:36:25 PM 29.8483 -82.4997 176° South 420 483 39,000  Level Jacksonville Center
Sun 04:37:25 PM 29.7272 -82.4908 176° South 425 489 39,000  Level Jacksonville Center
Sun 04:38:25 PM 29.5914 -82.4842 178° South 432 497 39,000  Level Jacksonville Center
Sun 04:39:25 PM 29.4619 -82.4703 175° South 453 521 39,000  Level Jacksonville Center
Sun 04:40:25 PM 29.3347 -82.4639 177° South 459 528 39,000  Level Jacksonville Center
Sun 04:41:25 PM 29.2094 -82.4547 176° South 459 528 39,000 -50 Level Jacksonville Center
Sun 04:42:25 PM 29.0819 -82.4531 179° South 459 528 38,900  Descending Jacksonville Center
Sun 04:43:25 PM 28.9631 -82.4772 190° South 452 520 39,000 50 Climbing Jacksonville Center
Sun 04:44:25 PM 28.8400 -82.5039 191° South 447 514 39,000  Level Jacksonville Center
Sun 04:45:25 PM 28.7275 -82.5469 199° South 441 507 39,000  Level Jacksonville Center
Sun 04:46:25 PM 28.6317 -82.6017 207° Southwest 434 499 39,000 -250 Level Jacksonville Center
Sun 04:47:25 PM 28.5211 -82.6564 204° Southwest 434 499 38,500 -950 Descending Jacksonville Center
Sun 04:48:25 PM 28.4044 -82.7156 204° Southwest 446 513 37,100 -1,071 Descending Jacksonville Center
Sun 04:50:41 PM 28.1167 -82.8114 196° South 453 521 35,000 -673 Descending Miami Center
Sun 04:51:41 PM 28.0061 -82.8103 179° South 453 521 34,900  Descending Miami Center
Sun 04:52:41 PM 27.8914 -82.8136 181° South 439 505 35,000 50 Climbing Miami Center
Sun 04:53:41 PM 27.7597 -82.8186 182° South 434 499 35,000 -250 Level Miami Center
Sun 04:54:41 PM 27.6428 -82.8242 182° South 418 481 34,500 -1,300 Descending Miami Center
Sun 04:55:41 PM 27.5300 -82.8275 182° South 435 501 32,400 -2,100 Descending Miami Center
Sun 04:56:41 PM 27.4047 -82.8306 181° South 450 518 30,300 -2,050 Descending Miami Center
Sun 04:57:41 PM 27.2958 -82.7361 142° Southeast 430 495 28,300 -1,150 Descending Miami Center
Sun 04:58:41 PM 27.2097 -82.6478 138° Southeast 423 487 28,000 -800 Descending Miami Center
Sun 04:59:41 PM 27.1017 -82.5842 152° Southeast 423 487 26,700 -1,650 Descending Miami Center
Sun 05:00:41 PM 27.0392 -82.4761 123° Southeast 434 499 24,700 -1,350 Descending Miami Center
Sun 05:01:41 PM 26.9733 -82.3425 119° Southeast 439 505 24,000 -400 Descending Miami Center
Sun 05:02:41 PM 26.9256 -82.2192 113° Southeast 439 505 23,900 -50 Descending Miami Center
Sun 05:03:41 PM 26.9033 -82.0878 101° East 420 483 23,900 -1,000 Level Miami Center
Sun 05:04:41 PM 26.8831 -81.9519 99° East 426 490 21,900 -2,150 Descending Miami Center
Sun 05:05:41 PM 26.8625 -81.8231 100° East 426 490 19,600 -1,450 Descending Miami Center
Sun 05:06:41 PM 26.8458 -81.7014 99° East 418 481 19,000 -300 Descending Miami Center
Sun 05:07:41 PM 26.8414 -81.5778 92° East 406 467 19,000 -350 Level Miami Center
Sun 05:08:41 PM 26.8350 -81.4542 93° East 406 467 18,300 -1,500 Descending Miami Center
Sun 05:09:41 PM 26.8300 -81.3517 93° East 382 440 16,000 -2,250 Descending Miami Center
Sun 05:10:41 PM 26.8231 -81.2303 94° East 352 405 13,800 -2,050 Descending Miami Center
Sun 05:11:41 PM 26.8031 -81.1294 103° East 347 399 11,900 -1,850 Descending Miami Center
Sun 05:12:41 PM 26.7575 -81.0464 122° Southeast 321 369 10,100 -1,400 Descending Miami Center
Sun 05:13:41 PM 26.7200 -80.9753 121° Southeast 299 344 9,100 -500 Descending Miami Center
Sun 05:14:41 PM 26.6864 -80.9022 117° Southeast 269 310 9,100 -50 Level Miami Center
Sun 05:15:41 PM 26.6447 -80.8217 120° Southeast 266 306 9,000 -50 Descending Miami Center
Sun 05:16:41 PM 26.6008 -80.7506 125° Southeast 280 322 9,000  Level Miami Center
Sun 05:17:17 PM 26.5683 -80.7100 132° Southeast 280 322 9,000 -62 Level Miami Center
Sun 05:18:18 PM 26.5244 -80.6414 126° Southeast 278 320 8,900 -927 Descending Miami Center
Sun 05:19:20 PM 26.4928 -80.5636 114° Southeast 279 321 7,100 -1,805 Descending Miami Center
Sun 05:20:21 PM 26.4992 -80.4825 85° East 260 299 5,200 -1,721 Descending Miami Center
Sun 05:21:22 PM 26.4906 -80.4011 97° East 249 287 3,600 -1,475 Descending Miami Center
Sun 05:22:23 PM 26.4631 -80.3331 114° Southeast 233 268 2,200 -836 Descending Miami Center
Sun 05:23:24 PM 26.4392 -80.2789 116° Southeast 198 228 1,900 -148 Descending Miami Center
Sun 05:24:25 PM 26.4156 -80.2250 116° Southeast 184 212 1,900 -98 Level Miami Center
Sun 05:25:26 PM 26.3789 -80.1869 137° Southeast 173 199 1,700 -541 Descending Miami Center
Sun 05:26:27 PM 26.3525 -80.1489 128° Southeast 149 171 800 -885 Descending Miami Center
Sun 05:28:00 PM 26.3667 -80.1000 138° Southeast  Level FlightAware Approximate
Sun 05:35:00 PM 26.3785 -80.1077 138° Southeast  Level Estimated

Login

Don't have an account? Register now (free) for customized features, flight alerts, and more!